sensor_id;sensor_type;location;lat;lon;timestamp;pressure;altitude;pressure_sealevel;temperature;humidity
63694;BME280;49839;51.798;10.954;2023-05-01T00:01:36;99500.09;;;7.22;nan
63694;BME280;49839;51.798;10.954;2023-05-01T00:04:04;99499.09;;;7.24;nan
63694;BME280;49839;51.798;10.954;2023-05-01T00:14:39;99488.50;;;7.27;nan
63694;BME280;49839;51.798;10.954;2023-05-01T00:19:50;99477.13;;;7.28;nan
63694;BME280;49839;51.798;10.954;2023-05-01T00:22:18;99468.41;;;7.28;nan
63694;BME280;49839;51.798;10.954;2023-05-01T00:24:46;99471.91;;;7.27;nan
63694;BME280;49839;51.798;10.954;2023-05-01T00:27:14;99469.34;;;7.25;nan
63694;BME280;49839;51.798;10.954;2023-05-01T00:29:43;99462.41;;;7.24;nan
63694;BME280;49839;51.798;10.954;2023-05-01T00:32:11;99463.31;;;7.23;nan
63694;BME280;49839;51.798;10.954;2023-05-01T00:34:49;99458.94;;;7.24;nan
63694;BME280;49839;51.798;10.954;2023-05-01T00:39:58;99448.50;;;7.22;nan
63694;BME280;49839;51.798;10.954;2023-05-01T00:50:32;99443.50;;;7.16;nan
63694;BME280;49839;51.798;10.954;2023-05-01T00:53:03;99438.28;;;7.15;nan
63694;BME280;49839;51.798;10.954;2023-05-01T00:56:14;99427.91;;;7.12;nan
63694;BME280;49839;51.798;10.954;2023-05-01T01:03:59;99427.28;;;7.05;nan
63694;BME280;49839;51.798;10.954;2023-05-01T01:06:32;99423.03;;;7.02;nan
63694;BME280;49839;51.798;10.954;2023-05-01T01:09:12;99418.72;;;7.00;nan
63694;BME280;49839;51.798;10.954;2023-05-01T01:11:53;99414.47;;;6.97;nan
63694;BME280;49839;51.798;10.954;2023-05-01T01:14:26;99412.84;;;6.93;nan
63694;BME280;49839;51.798;10.954;2023-05-01T01:17:03;99413.91;;;6.88;nan
63694;BME280;49839;51.798;10.954;2023-05-01T01:19:54;99403.63;;;6.83;nan
63694;BME280;49839;51.798;10.954;2023-05-01T01:22:28;99408.88;;;6.82;nan
63694;BME280;49839;51.798;10.954;2023-05-01T01:25:14;99401.09;;;6.80;nan
63694;BME280;49839;51.798;10.954;2023-05-01T01:28:05;99402.06;;;6.77;nan
63694;BME280;49839;51.798;10.954;2023-05-01T01:30:56;99402.22;;;6.73;nan
63694;BME280;49839;51.798;10.954;2023-05-01T01:33:53;99395.34;;;6.69;nan
63694;BME280;49839;51.798;10.954;2023-05-01T01:36:27;99393.72;;;6.66;nan
63694;BME280;49839;51.798;10.954;2023-05-01T01:39:08;99385.28;;;6.58;nan
63694;BME280;49839;51.798;10.954;2023-05-01T01:41:38;99384.41;;;6.58;nan
63694;BME280;49839;51.798;10.954;2023-05-01T01:44:11;99383.66;;;6.54;nan
63694;BME280;49839;51.798;10.954;2023-05-01T01:46:41;99387.19;;;6.53;nan
63694;BME280;49839;51.798;10.954;2023-05-01T01:49:15;99378.53;;;6.51;nan
63694;BME280;49839;51.798;10.954;2023-05-01T01:51:47;99376.16;;;6.43;nan
63694;BME280;49839;51.798;10.954;2023-05-01T01:54:18;99374.63;;;6.38;nan
63694;BME280;49839;51.798;10.954;2023-05-01T01:56:49;99369.41;;;6.36;nan
63694;BME280;49839;51.798;10.954;2023-05-01T01:59:19;99370.53;;;6.29;nan
63694;BME280;49839;51.798;10.954;2023-05-01T02:01:48;99366.22;;;6.28;nan
63694;BME280;49839;51.798;10.954;2023-05-01T02:04:19;99359.28;;;6.27;nan
63694;BME280;49839;51.798;10.954;2023-05-01T02:06:48;99348.88;;;6.26;nan
63694;BME280;49839;51.798;10.954;2023-05-01T02:09:18;99355.88;;;6.25;nan
63694;BME280;49839;51.798;10.954;2023-05-01T02:11:47;99354.97;;;6.24;nan
63694;BME280;49839;51.798;10.954;2023-05-01T02:14:17;99345.41;;;6.23;nan
63694;BME280;49839;51.798;10.954;2023-05-01T02:16:46;99343.78;;;6.21;nan
63694;BME280;49839;51.798;10.954;2023-05-01T02:19:15;99347.50;;;6.14;nan
63694;BME280;49839;51.798;10.954;2023-05-01T02:21:46;99342.34;;;6.12;nan
63694;BME280;49839;51.798;10.954;2023-05-01T02:24:15;99344.03;;;6.13;nan
63694;BME280;49839;51.798;10.954;2023-05-01T02:26:50;99344.84;;;6.15;nan
63694;BME280;49839;51.798;10.954;2023-05-01T02:29:20;99342.28;;;6.14;nan
63694;BME280;49839;51.798;10.954;2023-05-01T02:31:48;99337.97;;;6.11;nan
63694;BME280;49839;51.798;10.954;2023-05-01T02:34:15;99333.00;;;6.04;nan
63694;BME280;49839;51.798;10.954;2023-05-01T02:36:44;99328.16;;;5.93;nan
63694;BME280;49839;51.798;10.954;2023-05-01T02:39:12;99324.88;;;5.85;nan
63694;BME280;49839;51.798;10.954;2023-05-01T02:41:40;99319.81;;;5.80;nan
63694;BME280;49839;51.798;10.954;2023-05-01T02:44:10;99317.28;;;5.77;nan
63694;BME280;49839;51.798;10.954;2023-05-01T02:46:41;99322.50;;;5.77;nan
63694;BME280;49839;51.798;10.954;2023-05-01T02:49:11;99308.44;;;5.81;nan
63694;BME280;49839;51.798;10.954;2023-05-01T02:51:39;99310.94;;;5.84;nan
63694;BME280;49839;51.798;10.954;2023-05-01T02:54:09;99306.53;;;5.86;nan
63694;BME280;49839;51.798;10.954;2023-05-01T02:56:37;99305.69;;;5.84;nan
63694;BME280;49839;51.798;10.954;2023-05-01T02:59:05;99309.34;;;5.80;nan
63694;BME280;49839;51.798;10.954;2023-05-01T03:01:32;99300.53;;;5.83;nan
63694;BME280;49839;51.798;10.954;2023-05-01T03:04:00;99300.41;;;5.86;nan
63694;BME280;49839;51.798;10.954;2023-05-01T03:06:27;99295.09;;;5.89;nan
63694;BME280;49839;51.798;10.954;2023-05-01T03:08:56;99292.38;;;5.93;nan
63694;BME280;49839;51.798;10.954;2023-05-01T03:11:25;99293.16;;;5.95;nan
63694;BME280;49839;51.798;10.954;2023-05-01T03:13:53;99284.47;;;5.95;nan
63694;BME280;49839;51.798;10.954;2023-05-01T03:16:20;99282.72;;;5.95;nan
63694;BME280;49839;51.798;10.954;2023-05-01T03:18:48;99280.88;;;5.97;nan
63694;BME280;49839;51.798;10.954;2023-05-01T03:21:15;99271.25;;;6.00;nan
63694;BME280;49839;51.798;10.954;2023-05-01T03:23:43;99268.47;;;6.04;nan
63694;BME280;49839;51.798;10.954;2023-05-01T03:26:11;99271.91;;;6.06;nan
63694;BME280;49839;51.798;10.954;2023-05-01T03:28:40;99274.44;;;6.08;nan
63694;BME280;49839;51.798;10.954;2023-05-01T03:31:08;99267.47;;;6.08;nan
63694;BME280;49839;51.798;10.954;2023-05-01T03:33:35;99270.97;;;6.07;nan
63694;BME280;49839;51.798;10.954;2023-05-01T03:36:04;99269.38;;;6.03;nan
63694;BME280;49839;51.798;10.954;2023-05-01T03:38:32;99260.78;;;6.00;nan
63694;BME280;49839;51.798;10.954;2023-05-01T03:40:59;99258.16;;;6.00;nan
63694;BME280;49839;51.798;10.954;2023-05-01T03:43:27;99263.28;;;6.03;nan
63694;BME280;49839;51.798;10.954;2023-05-01T03:45:56;99258.97;;;6.02;nan
63694;BME280;49839;51.798;10.954;2023-05-01T03:48:23;99259.97;;;5.97;nan
63694;BME280;49839;51.798;10.954;2023-05-01T03:50:51;99257.56;;;5.91;nan
63694;BME280;49839;51.798;10.954;2023-05-01T03:53:19;99253.19;;;5.90;nan
63694;BME280;49839;51.798;10.954;2023-05-01T03:55:46;99254.91;;;5.93;nan
63694;BME280;49839;51.798;10.954;2023-05-01T03:58:14;99251.19;;;5.98;nan
63694;BME280;49839;51.798;10.954;2023-05-01T04:00:42;99247.09;;;5.91;nan
63694;BME280;49839;51.798;10.954;2023-05-01T04:03:11;99245.47;;;5.87;nan
63694;BME280;49839;51.798;10.954;2023-05-01T04:05:39;99247.09;;;5.91;nan
63694;BME280;49839;51.798;10.954;2023-05-01T04:08:06;99241.09;;;5.88;nan
63694;BME280;49839;51.798;10.954;2023-05-01T04:10:34;99238.94;;;6.01;nan
63694;BME280;49839;51.798;10.954;2023-05-01T04:13:02;99239.09;;;6.21;nan
63694;BME280;49839;51.798;10.954;2023-05-01T04:15:30;99236.53;;;6.44;nan
63694;BME280;49839;51.798;10.954;2023-05-01T04:17:57;99239.44;;;6.60;nan
63694;BME280;49839;51.798;10.954;2023-05-01T04:20:27;99231.53;;;6.85;nan
63694;BME280;49839;51.798;10.954;2023-05-01T04:22:54;99237.69;;;7.06;nan
63694;BME280;49839;51.798;10.954;2023-05-01T04:25:22;99229.44;;;7.17;nan
63694;BME280;49839;51.798;10.954;2023-05-01T04:27:50;99225.13;;;7.16;nan
63694;BME280;49839;51.798;10.954;2023-05-01T04:30:17;99224.19;;;7.17;nan
63694;BME280;49839;51.798;10.954;2023-05-01T04:32:45;99222.28;;;7.20;nan
63694;BME280;49839;51.798;10.954;2023-05-01T04:35:12;99222.78;;;7.30;nan
63694;BME280;49839;51.798;10.954;2023-05-01T04:37:41;99226.75;;;7.40;nan
63694;BME280;49839;51.798;10.954;2023-05-01T04:40:10;99212.28;;;7.52;nan
63694;BME280;49839;51.798;10.954;2023-05-01T04:42:38;99214.72;;;7.56;nan
63694;BME280;49839;51.798;10.954;2023-05-01T04:45:06;99210.50;;;7.52;nan
63694;BME280;49839;51.798;10.954;2023-05-01T04:47:34;99215.66;;;7.55;nan
63694;BME280;49839;51.798;10.954;2023-05-01T04:50:01;99206.88;;;7.56;nan
63694;BME280;49839;51.798;10.954;2023-05-01T04:52:29;99204.91;;;7.62;nan
63694;BME280;49839;51.798;10.954;2023-05-01T04:54:58;99207.06;;;7.72;nan
63694;BME280;49839;51.798;10.954;2023-05-01T04:57:26;99207.56;;;7.82;nan
63694;BME280;49839;51.798;10.954;2023-05-01T04:59:54;99208.72;;;7.75;nan
63694;BME280;49839;51.798;10.954;2023-05-01T05:02:21;99210.53;;;7.73;nan
63694;BME280;49839;51.798;10.954;2023-05-01T05:04:49;99213.22;;;7.71;nan
63694;BME280;49839;51.798;10.954;2023-05-01T05:07:19;99210.22;;;7.60;nan
63694;BME280;49839;51.798;10.954;2023-05-01T05:09:46;99205.09;;;7.57;nan
63694;BME280;49839;51.798;10.954;2023-05-01T05:12:15;99204.09;;;7.59;nan
63694;BME280;49839;51.798;10.954;2023-05-01T05:14:43;99197.63;;;7.68;nan
63694;BME280;49839;51.798;10.954;2023-05-01T05:17:10;99206.38;;;7.89;nan
63694;BME280;49839;51.798;10.954;2023-05-01T05:19:38;99205.50;;;8.09;nan
63694;BME280;49839;51.798;10.954;2023-05-01T05:22:06;99198.47;;;8.30;nan
63694;BME280;49839;51.798;10.954;2023-05-01T05:24:33;99204.44;;;8.54;nan
63694;BME280;49839;51.798;10.954;2023-05-01T05:27:01;99201.13;;;8.88;nan
63694;BME280;49839;51.798;10.954;2023-05-01T05:29:30;99198.31;;;9.29;nan
63694;BME280;49839;51.798;10.954;2023-05-01T05:32:00;99192.78;;;9.52;nan
63694;BME280;49839;51.798;10.954;2023-05-01T05:34:28;99188.94;;;9.76;nan
63694;BME280;49839;51.798;10.954;2023-05-01T05:36:55;99181.63;;;10.16;nan
63694;BME280;49839;51.798;10.954;2023-05-01T05:39:23;99182.69;;;10.47;nan
63694;BME280;49839;51.798;10.954;2023-05-01T05:41:50;99187.06;;;10.79;nan
63694;BME280;49839;51.798;10.954;2023-05-01T05:44:19;99179.53;;;11.21;nan
63694;BME280;49839;51.798;10.954;2023-05-01T05:46:48;99182.59;;;11.59;nan
63694;BME280;49839;51.798;10.954;2023-05-01T05:49:16;99184.25;;;11.91;nan
63694;BME280;49839;51.798;10.954;2023-05-01T05:51:44;99175.13;;;12.11;nan
63694;BME280;49839;51.798;10.954;2023-05-01T05:54:12;99181.28;;;12.26;nan
63694;BME280;49839;51.798;10.954;2023-05-01T05:56:40;99181.56;;;12.36;nan
63694;BME280;49839;51.798;10.954;2023-05-01T05:59:08;99177.22;;;12.49;nan
63694;BME280;49839;51.798;10.954;2023-05-01T06:01:35;99184.59;;;12.72;nan
63694;BME280;49839;51.798;10.954;2023-05-01T06:04:06;99175.66;;;12.88;nan
63694;BME280;49839;51.798;10.954;2023-05-01T06:06:34;99182.72;;;13.16;nan
63694;BME280;49839;51.798;10.954;2023-05-01T06:09:02;99176.34;;;13.33;nan
63694;BME280;49839;51.798;10.954;2023-05-01T06:11:30;99175.91;;;13.53;nan
63694;BME280;49839;51.798;10.954;2023-05-01T06:13:57;99171.44;;;13.80;nan
63694;BME280;49839;51.798;10.954;2023-05-01T06:16:25;99166.16;;;13.93;nan
63694;BME280;49839;51.798;10.954;2023-05-01T06:18:53;99161.59;;;14.08;nan
63694;BME280;49839;51.798;10.954;2023-05-01T06:21:22;99170.53;;;14.32;nan
63694;BME280;49839;51.798;10.954;2023-05-01T06:23:50;99167.47;;;14.51;nan
63694;BME280;49839;51.798;10.954;2023-05-01T06:26:18;99169.44;;;14.73;nan
63694;BME280;49839;51.798;10.954;2023-05-01T06:28:45;99173.34;;;14.93;nan
63694;BME280;49839;51.798;10.954;2023-05-01T06:31:13;99160.06;;;15.30;nan
63694;BME280;49839;51.798;10.954;2023-05-01T06:33:40;99161.53;;;15.34;nan
63694;BME280;49839;51.798;10.954;2023-05-01T06:36:08;99161.91;;;15.64;nan
63694;BME280;49839;51.798;10.954;2023-05-01T06:38:37;99156.78;;;15.74;nan
63694;BME280;49839;51.798;10.954;2023-05-01T06:41:06;99150.00;;;15.70;nan
63694;BME280;49839;51.798;10.954;2023-05-01T06:43:34;99158.91;;;15.93;nan
63694;BME280;49839;51.798;10.954;2023-05-01T06:46:02;99149.31;;;15.79;nan
63694;BME280;49839;51.798;10.954;2023-05-01T06:48:29;99149.31;;;15.55;nan
63694;BME280;49839;51.798;10.954;2023-05-01T06:50:57;99149.13;;;15.45;nan
63694;BME280;49839;51.798;10.954;2023-05-01T06:53:24;99146.44;;;15.34;nan
63694;BME280;49839;51.798;10.954;2023-05-01T06:55:53;99148.75;;;15.63;nan
63694;BME280;49839;51.798;10.954;2023-05-01T06:58:21;99148.09;;;15.83;nan
63694;BME280;49839;51.798;10.954;2023-05-01T07:00:50;99147.22;;;16.07;nan
63694;BME280;49839;51.798;10.954;2023-05-01T07:03:17;99143.19;;;16.01;nan
63694;BME280;49839;51.798;10.954;2023-05-01T07:05:45;99132.63;;;16.46;nan
63694;BME280;49839;51.798;10.954;2023-05-01T07:08:12;99135.41;;;16.89;nan
63694;BME280;49839;51.798;10.954;2023-05-01T07:10:40;99137.94;;;17.02;nan
63694;BME280;49839;51.798;10.954;2023-05-01T07:13:09;99141.28;;;17.15;nan
63694;BME280;49839;51.798;10.954;2023-05-01T07:15:37;99138.31;;;17.41;nan
63694;BME280;49839;51.798;10.954;2023-05-01T07:18:04;99130.81;;;17.35;nan
63694;BME280;49839;51.798;10.954;2023-05-01T07:20:32;99130.28;;;17.52;nan
63694;BME280;49839;51.798;10.954;2023-05-01T07:23:00;99119.47;;;17.85;nan
63694;BME280;49839;51.798;10.954;2023-05-01T07:25:30;99122.16;;;18.37;nan
63694;BME280;49839;51.798;10.954;2023-05-01T07:27:57;99116.81;;;18.67;nan
63694;BME280;49839;51.798;10.954;2023-05-01T07:30:28;99114.78;;;18.81;nan
63694;BME280;49839;51.798;10.954;2023-05-01T07:32:56;99113.25;;;18.88;nan
63694;BME280;49839;51.798;10.954;2023-05-01T07:35:24;99115.78;;;18.89;nan
63694;BME280;49839;51.798;10.954;2023-05-01T07:37:51;99110.16;;;18.92;nan
63694;BME280;49839;51.798;10.954;2023-05-01T07:40:20;99101.00;;;18.76;nan
63694;BME280;49839;51.798;10.954;2023-05-01T07:42:48;99096.06;;;18.71;nan
63694;BME280;49839;51.798;10.954;2023-05-01T07:45:17;99093.91;;;18.65;nan
63694;BME280;49839;51.798;10.954;2023-05-01T07:47:46;99090.19;;;18.77;nan
63694;BME280;49839;51.798;10.954;2023-05-01T07:50:15;99082.59;;;18.82;nan
63694;BME280;49839;51.798;10.954;2023-05-01T07:52:42;99083.19;;;18.96;nan
63694;BME280;49839;51.798;10.954;2023-05-01T07:55:10;99078.56;;;19.07;nan
63694;BME280;49839;51.798;10.954;2023-05-01T07:57:38;99081.38;;;19.25;nan
63694;BME280;49839;51.798;10.954;2023-05-01T08:00:07;99081.84;;;19.40;nan
63694;BME280;49839;51.798;10.954;2023-05-01T08:02:35;99075.47;;;19.89;nan
63694;BME280;49839;51.798;10.954;2023-05-01T08:05:04;99073.50;;;19.91;nan
63694;BME280;49839;51.798;10.954;2023-05-01T08:07:32;99071.56;;;20.21;nan
63694;BME280;49839;51.798;10.954;2023-05-01T08:10:00;99065.75;;;20.45;nan
63694;BME280;49839;51.798;10.954;2023-05-01T08:12:28;99066.63;;;20.63;nan
63694;BME280;49839;51.798;10.954;2023-05-01T08:14:56;99055.75;;;20.92;nan
63694;BME280;49839;51.798;10.954;2023-05-01T08:17:24;99056.09;;;21.07;nan
63694;BME280;49839;51.798;10.954;2023-05-01T08:19:51;99048.59;;;21.28;nan
63694;BME280;49839;51.798;10.954;2023-05-01T08:22:23;99047.78;;;21.18;nan
63694;BME280;49839;51.798;10.954;2023-05-01T08:24:51;99052.94;;;20.94;nan
63694;BME280;49839;51.798;10.954;2023-05-01T08:27:18;99059.66;;;21.16;nan
63694;BME280;49839;51.798;10.954;2023-05-01T08:29:46;99042.38;;;21.28;nan
63694;BME280;49839;51.798;10.954;2023-05-01T08:32:14;99046.38;;;20.78;nan
63694;BME280;49839;51.798;10.954;2023-05-01T08:34:41;99042.50;;;20.91;nan
63694;BME280;49839;51.798;10.954;2023-05-01T08:37:09;99041.13;;;21.04;nan
63694;BME280;49839;51.798;10.954;2023-05-01T08:39:38;99042.06;;;21.13;nan
63694;BME280;49839;51.798;10.954;2023-05-01T08:42:07;99037.31;;;21.43;nan
63694;BME280;49839;51.798;10.954;2023-05-01T08:44:37;99032.16;;;21.67;nan
63694;BME280;49839;51.798;10.954;2023-05-01T08:47:10;99021.22;;;21.86;nan
63694;BME280;49839;51.798;10.954;2023-05-01T08:49:40;99024.28;;;22.17;nan
63694;BME280;49839;51.798;10.954;2023-05-01T08:52:08;99025.38;;;22.33;nan
63694;BME280;49839;51.798;10.954;2023-05-01T08:54:41;99019.22;;;21.88;nan
63694;BME280;49839;51.798;10.954;2023-05-01T08:57:11;99020.97;;;21.72;nan
63694;BME280;49839;51.798;10.954;2023-05-01T08:59:39;99014.03;;;21.43;nan
63694;BME280;49839;51.798;10.954;2023-05-01T09:02:08;99014.19;;;21.59;nan
63694;BME280;49839;51.798;10.954;2023-05-01T09:04:37;99022.69;;;22.07;nan
63694;BME280;49839;51.798;10.954;2023-05-01T09:07:05;99018.78;;;22.27;nan
63694;BME280;49839;51.798;10.954;2023-05-01T09:09:33;99015.44;;;22.67;nan
63694;BME280;49839;51.798;10.954;2023-05-01T09:12:12;99009.50;;;23.31;nan
63694;BME280;49839;51.798;10.954;2023-05-01T09:14:43;98998.75;;;23.47;nan
63694;BME280;49839;51.798;10.954;2023-05-01T09:17:11;99002.53;;;24.01;nan
63694;BME280;49839;51.798;10.954;2023-05-01T09:19:39;99003.16;;;24.20;nan
63694;BME280;49839;51.798;10.954;2023-05-01T09:22:08;98995.44;;;24.64;nan
63694;BME280;49839;51.798;10.954;2023-05-01T09:24:36;98982.88;;;25.02;nan
63694;BME280;49839;51.798;10.954;2023-05-01T09:27:06;98982.47;;;24.91;nan
63694;BME280;49839;51.798;10.954;2023-05-01T09:29:37;98978.88;;;24.75;nan
63694;BME280;49839;51.798;10.954;2023-05-01T09:32:16;98976.41;;;24.89;nan
63694;BME280;49839;51.798;10.954;2023-05-01T09:34:46;98981.34;;;25.31;nan
63694;BME280;49839;51.798;10.954;2023-05-01T09:37:24;98967.09;;;25.60;nan
63694;BME280;49839;51.798;10.954;2023-05-01T09:40:02;98964.19;;;25.61;nan
63694;BME280;49839;51.798;10.954;2023-05-01T09:42:32;98964.63;;;25.73;nan
63694;BME280;49839;51.798;10.954;2023-05-01T09:45:01;98960.66;;;25.84;nan
63694;BME280;49839;51.798;10.954;2023-05-01T09:47:30;98961.28;;;26.30;nan
63694;BME280;49839;51.798;10.954;2023-05-01T09:49:59;98958.72;;;26.58;nan
63694;BME280;49839;51.798;10.954;2023-05-01T09:52:27;98955.91;;;26.15;nan
63694;BME280;49839;51.798;10.954;2023-05-01T09:55:12;98952.81;;;26.04;nan
63694;BME280;49839;51.798;10.954;2023-05-01T09:57:42;98955.31;;;25.76;nan
63694;BME280;49839;51.798;10.954;2023-05-01T10:00:12;98955.47;;;25.22;nan
63694;BME280;49839;51.798;10.954;2023-05-01T10:02:42;98943.13;;;24.81;nan
63694;BME280;49839;51.798;10.954;2023-05-01T10:05:11;98939.50;;;24.66;nan
63694;BME280;49839;51.798;10.954;2023-05-01T10:07:40;98943.94;;;24.59;nan
63694;BME280;49839;51.798;10.954;2023-05-01T10:10:21;98947.59;;;24.27;nan
63694;BME280;49839;51.798;10.954;2023-05-01T10:12:50;98947.47;;;24.59;nan
63694;BME280;49839;51.798;10.954;2023-05-01T10:15:18;98942.03;;;24.37;nan
63694;BME280;49839;51.798;10.954;2023-05-01T10:17:52;98939.06;;;24.23;nan
63694;BME280;49839;51.798;10.954;2023-05-01T10:20:21;98936.88;;;24.19;nan
63694;BME280;49839;51.798;10.954;2023-05-01T10:22:48;98934.88;;;24.52;nan
63694;BME280;49839;51.798;10.954;2023-05-01T10:25:16;98921.66;;;24.65;nan
63694;BME280;49839;51.798;10.954;2023-05-01T10:27:46;98928.84;;;24.50;nan
63694;BME280;49839;51.798;10.954;2023-05-01T10:30:16;98924.03;;;25.14;nan
63694;BME280;49839;51.798;10.954;2023-05-01T10:32:44;98923.50;;;25.19;nan
63694;BME280;49839;51.798;10.954;2023-05-01T10:35:14;98911.81;;;25.41;nan
63694;BME280;49839;51.798;10.954;2023-05-01T10:37:47;98918.75;;;25.73;nan
63694;BME280;49839;51.798;10.954;2023-05-01T10:40:42;98911.75;;;25.64;nan
63694;BME280;49839;51.798;10.954;2023-05-01T10:43:18;98904.44;;;25.35;nan
63694;BME280;49839;51.798;10.954;2023-05-01T10:45:53;98909.69;;;24.91;nan
63694;BME280;49839;51.798;10.954;2023-05-01T10:48:54;98904.06;;;24.23;nan
63694;BME280;49839;51.798;10.954;2023-05-01T10:51:23;98905.78;;;24.16;nan
63694;BME280;49839;51.798;10.954;2023-05-01T10:54:20;98902.41;;;24.14;nan
63694;BME280;49839;51.798;10.954;2023-05-01T10:56:49;98894.75;;;23.95;nan
63694;BME280;49839;51.798;10.954;2023-05-01T10:59:17;98897.66;;;23.85;nan
63694;BME280;49839;51.798;10.954;2023-05-01T11:01:46;98883.56;;;23.83;nan
63694;BME280;49839;51.798;10.954;2023-05-01T11:04:44;98881.63;;;23.44;nan
63694;BME280;49839;51.798;10.954;2023-05-01T11:07:16;98882.16;;;22.83;nan
63694;BME280;49839;51.798;10.954;2023-05-01T11:09:45;98869.22;;;22.78;nan
63694;BME280;49839;51.798;10.954;2023-05-01T11:12:18;98873.41;;;22.64;nan
63694;BME280;49839;51.798;10.954;2023-05-01T11:15:03;98874.59;;;22.70;nan
63694;BME280;49839;51.798;10.954;2023-05-01T11:17:47;98877.78;;;22.57;nan
63694;BME280;49839;51.798;10.954;2023-05-01T11:20:45;98871.53;;;22.32;nan
63694;BME280;49839;51.798;10.954;2023-05-01T11:23:21;98869.00;;;22.39;nan
63694;BME280;49839;51.798;10.954;2023-05-01T11:26:00;98867.06;;;22.07;nan
63694;BME280;49839;51.798;10.954;2023-05-01T11:28:29;98868.72;;;22.08;nan
63694;BME280;49839;51.798;10.954;2023-05-01T11:30:57;98866.63;;;22.28;nan
63694;BME280;49839;51.798;10.954;2023-05-01T11:33:26;98860.59;;;22.26;nan
63694;BME280;49839;51.798;10.954;2023-05-01T11:35:58;98862.59;;;21.81;nan
63694;BME280;49839;51.798;10.954;2023-05-01T11:38:27;98850.47;;;21.69;nan
63694;BME280;49839;51.798;10.954;2023-05-01T11:40:59;98853.25;;;21.85;nan
63694;BME280;49839;51.798;10.954;2023-05-01T11:43:28;98839.66;;;21.79;nan
63694;BME280;49839;51.798;10.954;2023-05-01T11:45:56;98843.69;;;21.49;nan
63694;BME280;49839;51.798;10.954;2023-05-01T11:48:31;98838.56;;;21.63;nan
63694;BME280;49839;51.798;10.954;2023-05-01T11:50:58;98835.28;;;21.44;nan
63694;BME280;49839;51.798;10.954;2023-05-01T11:53:29;98844.22;;;21.26;nan
63694;BME280;49839;51.798;10.954;2023-05-01T11:55:57;98830.66;;;21.28;nan
63694;BME280;49839;51.798;10.954;2023-05-01T11:58:30;98824.06;;;21.14;nan
63694;BME280;49839;51.798;10.954;2023-05-01T12:00:58;98814.63;;;21.10;nan
63694;BME280;49839;51.798;10.954;2023-05-01T12:03:26;98816.47;;;21.09;nan
63694;BME280;49839;51.798;10.954;2023-05-01T12:05:56;98829.63;;;20.95;nan
63694;BME280;49839;51.798;10.954;2023-05-01T12:08:24;98821.84;;;21.09;nan
63694;BME280;49839;51.798;10.954;2023-05-01T12:10:53;98823.13;;;21.05;nan
63694;BME280;49839;51.798;10.954;2023-05-01T12:13:23;98817.03;;;21.13;nan
63694;BME280;49839;51.798;10.954;2023-05-01T12:15:52;98823.00;;;21.07;nan
63694;BME280;49839;51.798;10.954;2023-05-01T12:18:20;98817.84;;;21.14;nan
63694;BME280;49839;51.798;10.954;2023-05-01T12:20:49;98815.59;;;21.01;nan
63694;BME280;49839;51.798;10.954;2023-05-01T12:23:29;98813.06;;;20.99;nan
63694;BME280;49839;51.798;10.954;2023-05-01T12:25:57;98819.16;;;20.83;nan
63694;BME280;49839;51.798;10.954;2023-05-01T12:28:25;98813.84;;;20.92;nan
63694;BME280;49839;51.798;10.954;2023-05-01T12:31:00;98813.81;;;21.09;nan
63694;BME280;49839;51.798;10.954;2023-05-01T12:33:30;98812.75;;;21.02;nan
63694;BME280;49839;51.798;10.954;2023-05-01T12:36:08;98815.69;;;20.91;nan
63694;BME280;49839;51.798;10.954;2023-05-01T12:38:38;98809.75;;;20.79;nan
63694;BME280;49839;51.798;10.954;2023-05-01T12:41:06;98814.16;;;20.63;nan
63694;BME280;49839;51.798;10.954;2023-05-01T12:43:36;98825.91;;;20.70;nan
63694;BME280;49839;51.798;10.954;2023-05-01T12:46:04;98822.69;;;20.31;nan
63694;BME280;49839;51.798;10.954;2023-05-01T12:48:32;98816.13;;;20.25;nan
63694;BME280;49839;51.798;10.954;2023-05-01T12:51:05;98818.50;;;20.10;nan
63694;BME280;49839;51.798;10.954;2023-05-01T12:53:33;98817.09;;;20.06;nan
63694;BME280;49839;51.798;10.954;2023-05-01T12:56:02;98811.81;;;19.96;nan
63694;BME280;49839;51.798;10.954;2023-05-01T12:58:34;98792.25;;;19.78;nan
63694;BME280;49839;51.798;10.954;2023-05-01T13:01:03;98796.19;;;19.74;nan
63694;BME280;49839;51.798;10.954;2023-05-01T13:03:32;98790.81;;;19.84;nan
63694;BME280;49839;51.798;10.954;2023-05-01T13:06:02;98781.91;;;19.65;nan
63694;BME280;49839;51.798;10.954;2023-05-01T13:08:32;98785.41;;;19.66;nan
63694;BME280;49839;51.798;10.954;2023-05-01T13:11:09;98792.47;;;19.85;nan
63694;BME280;49839;51.798;10.954;2023-05-01T13:13:39;98778.72;;;19.80;nan
63694;BME280;49839;51.798;10.954;2023-05-01T13:16:08;98788.28;;;20.00;nan
63694;BME280;49839;51.798;10.954;2023-05-01T13:18:45;98790.81;;;20.01;nan
63694;BME280;49839;51.798;10.954;2023-05-01T13:21:14;98775.22;;;19.79;nan
63694;BME280;49839;51.798;10.954;2023-05-01T13:23:50;98786.97;;;19.86;nan
63694;BME280;49839;51.798;10.954;2023-05-01T13:26:24;98786.75;;;19.97;nan
63694;BME280;49839;51.798;10.954;2023-05-01T13:28:54;98782.09;;;19.99;nan
63694;BME280;49839;51.798;10.954;2023-05-01T13:31:22;98790.28;;;19.98;nan
63694;BME280;49839;51.798;10.954;2023-05-01T13:33:52;98783.50;;;20.04;nan
63694;BME280;49839;51.798;10.954;2023-05-01T13:36:20;98784.94;;;19.98;nan
63694;BME280;49839;51.798;10.954;2023-05-01T13:38:54;98793.00;;;19.88;nan
63694;BME280;49839;51.798;10.954;2023-05-01T13:41:25;98789.03;;;19.92;nan
63694;BME280;49839;51.798;10.954;2023-05-01T13:43:54;98786.53;;;19.91;nan
63694;BME280;49839;51.798;10.954;2023-05-01T13:46:24;98790.88;;;19.92;nan
63694;BME280;49839;51.798;10.954;2023-05-01T13:48:52;98784.69;;;19.91;nan
63694;BME280;49839;51.798;10.954;2023-05-01T13:51:21;98783.03;;;19.90;nan
63694;BME280;49839;51.798;10.954;2023-05-01T13:53:49;98787.84;;;19.77;nan
63694;BME280;49839;51.798;10.954;2023-05-01T13:56:19;98785.81;;;19.71;nan
63694;BME280;49839;51.798;10.954;2023-05-01T13:58:48;98792.28;;;19.68;nan